sensor_id;sensor_type;location;lat;lon;timestamp;P1;durP1;ratioP1;P2;durP2;ratioP2
13269;SDS011;6703;51.994;7.570;2023-03-31T00:00:30;14.10;;;2.30;;
13269;SDS011;6703;51.994;7.570;2023-03-31T00:02:59;14.90;;;2.65;;
13269;SDS011;6703;51.994;7.570;2023-03-31T00:05:28;11.07;;;2.40;;
13269;SDS011;6703;51.994;7.570;2023-03-31T00:07:58;11.68;;;2.60;;
13269;SDS011;6703;51.994;7.570;2023-03-31T00:13:01;13.65;;;2.83;;
13269;SDS011;6703;51.994;7.570;2023-03-31T00:15:29;11.53;;;2.93;;
13269;SDS011;6703;51.994;7.570;2023-03-31T00:17:56;9.82;;;2.42;;
13269;SDS011;6703;51.994;7.570;2023-03-31T00:20:26;8.15;;;2.25;;
13269;SDS011;6703;51.994;7.570;2023-03-31T00:22:55;7.05;;;2.17;;
13269;SDS011;6703;51.994;7.570;2023-03-31T00:25:24;12.73;;;2.20;;
13269;SDS011;6703;51.994;7.570;2023-03-31T00:27:51;6.40;;;1.98;;
13269;SDS011;6703;51.994;7.570;2023-03-31T00:30:19;10.75;;;2.33;;
13269;SDS011;6703;51.994;7.570;2023-03-31T00:32:47;12.95;;;2.25;;
13269;SDS011;6703;51.994;7.570;2023-03-31T00:35:16;11.07;;;1.98;;
13269;SDS011;6703;51.994;7.570;2023-03-31T00:37:44;15.00;;;2.78;;
13269;SDS011;6703;51.994;7.570;2023-03-31T00:40:12;11.17;;;2.67;;
13269;SDS011;6703;51.994;7.570;2023-03-31T00:42:40;11.38;;;2.10;;
13269;SDS011;6703;51.994;7.570;2023-03-31T00:47:53;8.80;;;2.30;;
13269;SDS011;6703;51.994;7.570;2023-03-31T00:50:24;16.13;;;2.30;;
13269;SDS011;6703;51.994;7.570;2023-03-31T00:52:54;10.02;;;2.67;;
13269;SDS011;6703;51.994;7.570;2023-03-31T00:55:24;12.47;;;2.57;;
13269;SDS011;6703;51.994;7.570;2023-03-31T00:57:55;15.40;;;2.33;;
13269;SDS011;6703;51.994;7.570;2023-03-31T01:00:23;9.40;;;2.28;;
13269;SDS011;6703;51.994;7.570;2023-03-31T01:02:52;10.48;;;2.45;;
13269;SDS011;6703;51.994;7.570;2023-03-31T01:05:26;12.35;;;2.53;;
13269;SDS011;6703;51.994;7.570;2023-03-31T01:07:56;7.03;;;2.20;;
13269;SDS011;6703;51.994;7.570;2023-03-31T01:10:27;9.85;;;2.45;;
13269;SDS011;6703;51.994;7.570;2023-03-31T01:12:56;12.23;;;2.83;;
13269;SDS011;6703;51.994;7.570;2023-03-31T01:15:24;10.25;;;2.45;;
13269;SDS011;6703;51.994;7.570;2023-03-31T01:17:52;8.05;;;2.42;;
13269;SDS011;6703;51.994;7.570;2023-03-31T01:20:23;11.15;;;2.50;;
13269;SDS011;6703;51.994;7.570;2023-03-31T01:23:11;15.38;;;2.58;;
13269;SDS011;6703;51.994;7.570;2023-03-31T01:26:06;12.43;;;3.10;;
13269;SDS011;6703;51.994;7.570;2023-03-31T01:28:44;12.13;;;2.30;;
13269;SDS011;6703;51.994;7.570;2023-03-31T01:31:31;10.38;;;2.72;;
13269;SDS011;6703;51.994;7.570;2023-03-31T01:34:21;8.63;;;1.98;;
13269;SDS011;6703;51.994;7.570;2023-03-31T01:37:06;11.55;;;2.22;;
13269;SDS011;6703;51.994;7.570;2023-03-31T01:39:50;13.10;;;2.35;;
13269;SDS011;6703;51.994;7.570;2023-03-31T01:42:28;9.10;;;2.28;;
13269;SDS011;6703;51.994;7.570;2023-03-31T01:45:00;12.60;;;2.53;;
13269;SDS011;6703;51.994;7.570;2023-03-31T01:47:32;11.70;;;1.90;;
13269;SDS011;6703;51.994;7.570;2023-03-31T01:50:06;13.07;;;2.10;;
13269;SDS011;6703;51.994;7.570;2023-03-31T01:52:39;9.15;;;2.03;;
13269;SDS011;6703;51.994;7.570;2023-03-31T01:55:12;7.80;;;1.83;;
13269;SDS011;6703;51.994;7.570;2023-03-31T01:57:44;8.43;;;1.65;;
13269;SDS011;6703;51.994;7.570;2023-03-31T02:00:14;8.10;;;1.80;;
13269;SDS011;6703;51.994;7.570;2023-03-31T02:02:44;10.37;;;2.07;;
13269;SDS011;6703;51.994;7.570;2023-03-31T02:05:14;7.53;;;1.70;;
13269;SDS011;6703;51.994;7.570;2023-03-31T02:07:45;12.48;;;1.92;;
13269;SDS011;6703;51.994;7.570;2023-03-31T02:10:16;5.80;;;1.77;;
13269;SDS011;6703;51.994;7.570;2023-03-31T02:12:44;8.50;;;1.50;;
13269;SDS011;6703;51.994;7.570;2023-03-31T02:15:13;10.45;;;2.15;;
13269;SDS011;6703;51.994;7.570;2023-03-31T02:17:59;10.10;;;1.53;;
13269;SDS011;6703;51.994;7.570;2023-03-31T02:20:31;8.70;;;1.88;;
13269;SDS011;6703;51.994;7.570;2023-03-31T02:22:59;9.70;;;1.80;;
13269;SDS011;6703;51.994;7.570;2023-03-31T02:25:30;9.63;;;1.90;;
13269;SDS011;6703;51.994;7.570;2023-03-31T02:28:00;5.07;;;1.25;;
13269;SDS011;6703;51.994;7.570;2023-03-31T02:30:31;5.88;;;1.20;;
13269;SDS011;6703;51.994;7.570;2023-03-31T02:33:03;5.47;;;1.08;;
13269;SDS011;6703;51.994;7.570;2023-03-31T02:35:31;4.15;;;1.00;;
13269;SDS011;6703;51.994;7.570;2023-03-31T02:38:00;10.97;;;1.27;;
13269;SDS011;6703;51.994;7.570;2023-03-31T02:40:33;11.27;;;1.20;;
13269;SDS011;6703;51.994;7.570;2023-03-31T02:43:01;4.05;;;1.17;;
13269;SDS011;6703;51.994;7.570;2023-03-31T02:45:35;7.90;;;1.20;;
13269;SDS011;6703;51.994;7.570;2023-03-31T02:48:05;12.10;;;1.48;;
13269;SDS011;6703;51.994;7.570;2023-03-31T02:50:34;8.27;;;1.67;;
13269;SDS011;6703;51.994;7.570;2023-03-31T02:53:05;6.60;;;1.40;;
13269;SDS011;6703;51.994;7.570;2023-03-31T02:55:42;10.13;;;1.50;;
13269;SDS011;6703;51.994;7.570;2023-03-31T02:58:32;7.05;;;1.30;;
13269;SDS011;6703;51.994;7.570;2023-03-31T03:01:07;9.52;;;1.17;;
13269;SDS011;6703;51.994;7.570;2023-03-31T03:03:40;4.57;;;1.10;;
13269;SDS011;6703;51.994;7.570;2023-03-31T03:06:16;4.70;;;1.17;;
13269;SDS011;6703;51.994;7.570;2023-03-31T03:08:51;1.75;;;0.75;;
13269;SDS011;6703;51.994;7.570;2023-03-31T03:11:29;5.80;;;1.20;;
13269;SDS011;6703;51.994;7.570;2023-03-31T03:14:02;4.63;;;0.73;;
13269;SDS011;6703;51.994;7.570;2023-03-31T03:16:34;5.00;;;0.80;;
13269;SDS011;6703;51.994;7.570;2023-03-31T03:19:04;4.30;;;1.17;;
13269;SDS011;6703;51.994;7.570;2023-03-31T03:21:32;7.13;;;1.08;;
13269;SDS011;6703;51.994;7.570;2023-03-31T03:24:00;3.50;;;0.82;;
13269;SDS011;6703;51.994;7.570;2023-03-31T03:26:30;3.15;;;0.55;;
13269;SDS011;6703;51.994;7.570;2023-03-31T03:29:00;4.68;;;0.90;;
13269;SDS011;6703;51.994;7.570;2023-03-31T03:31:28;2.92;;;0.88;;
13269;SDS011;6703;51.994;7.570;2023-03-31T03:33:56;5.77;;;1.20;;
13269;SDS011;6703;51.994;7.570;2023-03-31T03:36:23;5.75;;;1.02;;
13269;SDS011;6703;51.994;7.570;2023-03-31T03:38:51;1.97;;;0.70;;
13269;SDS011;6703;51.994;7.570;2023-03-31T03:41:19;3.03;;;0.80;;
13269;SDS011;6703;51.994;7.570;2023-03-31T03:43:48;2.17;;;1.13;;
13269;SDS011;6703;51.994;7.570;2023-03-31T03:46:15;6.13;;;1.38;;
13269;SDS011;6703;51.994;7.570;2023-03-31T03:48:43;5.05;;;1.08;;
13269;SDS011;6703;51.994;7.570;2023-03-31T03:51:11;3.60;;;0.80;;
13269;SDS011;6703;51.994;7.570;2023-03-31T03:53:39;1.90;;;0.82;;
13269;SDS011;6703;51.994;7.570;2023-03-31T03:56:06;8.40;;;1.07;;
13269;SDS011;6703;51.994;7.570;2023-03-31T03:58:34;3.90;;;0.85;;
13269;SDS011;6703;51.994;7.570;2023-03-31T04:01:03;1.20;;;0.83;;
13269;SDS011;6703;51.994;7.570;2023-03-31T04:03:31;5.97;;;1.20;;
13269;SDS011;6703;51.994;7.570;2023-03-31T04:06:17;3.40;;;1.20;;
13269;SDS011;6703;51.994;7.570;2023-03-31T04:08:44;4.35;;;1.20;;
13269;SDS011;6703;51.994;7.570;2023-03-31T04:11:13;3.65;;;0.88;;
13269;SDS011;6703;51.994;7.570;2023-03-31T04:13:44;3.87;;;1.00;;
13269;SDS011;6703;51.994;7.570;2023-03-31T04:16:14;1.93;;;1.03;;
13269;SDS011;6703;51.994;7.570;2023-03-31T04:18:43;2.15;;;0.82;;
13269;SDS011;6703;51.994;7.570;2023-03-31T04:21:12;1.85;;;0.98;;
13269;SDS011;6703;51.994;7.570;2023-03-31T04:23:48;3.90;;;1.05;;
13269;SDS011;6703;51.994;7.570;2023-03-31T04:26:24;6.18;;;0.90;;
13269;SDS011;6703;51.994;7.570;2023-03-31T04:28:56;0.63;;;0.47;;
13269;SDS011;6703;51.994;7.570;2023-03-31T04:31:26;3.42;;;1.50;;
13269;SDS011;6703;51.994;7.570;2023-03-31T04:33:56;3.92;;;0.75;;
13269;SDS011;6703;51.994;7.570;2023-03-31T04:36:28;9.02;;;1.15;;
13269;SDS011;6703;51.994;7.570;2023-03-31T04:38:56;5.85;;;1.63;;
13269;SDS011;6703;51.994;7.570;2023-03-31T04:41:24;9.63;;;1.15;;
13269;SDS011;6703;51.994;7.570;2023-03-31T04:43:53;1.40;;;0.63;;
13269;SDS011;6703;51.994;7.570;2023-03-31T04:46:21;2.15;;;0.60;;
13269;SDS011;6703;51.994;7.570;2023-03-31T04:48:50;5.90;;;0.80;;
13269;SDS011;6703;51.994;7.570;2023-03-31T04:51:18;4.55;;;1.48;;
13269;SDS011;6703;51.994;7.570;2023-03-31T04:53:46;0.73;;;0.50;;
13269;SDS011;6703;51.994;7.570;2023-03-31T04:56:14;3.83;;;1.20;;
13269;SDS011;6703;51.994;7.570;2023-03-31T04:58:41;7.45;;;1.30;;
13269;SDS011;6703;51.994;7.570;2023-03-31T05:01:09;3.63;;;1.27;;
13269;SDS011;6703;51.994;7.570;2023-03-31T05:03:38;4.90;;;0.95;;
13269;SDS011;6703;51.994;7.570;2023-03-31T05:06:09;5.35;;;1.08;;
13269;SDS011;6703;51.994;7.570;2023-03-31T05:08:37;4.85;;;0.57;;
13269;SDS011;6703;51.994;7.570;2023-03-31T05:11:04;0.77;;;0.63;;
13269;SDS011;6703;51.994;7.570;2023-03-31T05:13:32;4.40;;;1.40;;
13269;SDS011;6703;51.994;7.570;2023-03-31T05:16:05;2.65;;;1.00;;
13269;SDS011;6703;51.994;7.570;2023-03-31T05:18:34;3.40;;;0.77;;
13269;SDS011;6703;51.994;7.570;2023-03-31T05:21:10;1.15;;;0.68;;
13269;SDS011;6703;51.994;7.570;2023-03-31T05:23:39;5.50;;;1.25;;
13269;SDS011;6703;51.994;7.570;2023-03-31T05:26:07;5.43;;;1.65;;
13269;SDS011;6703;51.994;7.570;2023-03-31T05:28:34;11.63;;;1.67;;
13269;SDS011;6703;51.994;7.570;2023-03-31T05:31:03;1.50;;;1.02;;
13269;SDS011;6703;51.994;7.570;2023-03-31T05:33:32;2.90;;;0.70;;
13269;SDS011;6703;51.994;7.570;2023-03-31T05:35:59;2.40;;;0.70;;
13269;SDS011;6703;51.994;7.570;2023-03-31T05:38:29;14.63;;;2.10;;
13269;SDS011;6703;51.994;7.570;2023-03-31T05:40:57;2.80;;;0.73;;
13269;SDS011;6703;51.994;7.570;2023-03-31T05:43:24;3.33;;;0.93;;
13269;SDS011;6703;51.994;7.570;2023-03-31T05:45:52;8.32;;;1.50;;
13269;SDS011;6703;51.994;7.570;2023-03-31T05:48:20;2.60;;;1.25;;
13269;SDS011;6703;51.994;7.570;2023-03-31T05:50:48;10.40;;;1.50;;
13269;SDS011;6703;51.994;7.570;2023-03-31T05:53:16;7.80;;;1.20;;
13269;SDS011;6703;51.994;7.570;2023-03-31T05:55:45;7.95;;;1.35;;
13269;SDS011;6703;51.994;7.570;2023-03-31T05:58:12;3.60;;;1.77;;
13269;SDS011;6703;51.994;7.570;2023-03-31T06:00:40;2.67;;;1.20;;
13269;SDS011;6703;51.994;7.570;2023-03-31T06:03:09;6.00;;;1.40;;
13269;SDS011;6703;51.994;7.570;2023-03-31T06:05:38;0.93;;;0.87;;
13269;SDS011;6703;51.994;7.570;2023-03-31T06:08:06;4.82;;;1.23;;
13269;SDS011;6703;51.994;7.570;2023-03-31T06:10:34;1.30;;;0.90;;
13269;SDS011;6703;51.994;7.570;2023-03-31T06:13:19;8.77;;;1.20;;
13269;SDS011;6703;51.994;7.570;2023-03-31T06:15:51;7.00;;;0.80;;
13269;SDS011;6703;51.994;7.570;2023-03-31T06:18:20;2.45;;;0.65;;
13269;SDS011;6703;51.994;7.570;2023-03-31T06:20:49;4.55;;;1.25;;
13269;SDS011;6703;51.994;7.570;2023-03-31T06:23:17;1.20;;;0.60;;
13269;SDS011;6703;51.994;7.570;2023-03-31T06:25:48;5.30;;;0.70;;
13269;SDS011;6703;51.994;7.570;2023-03-31T06:28:17;10.55;;;0.70;;
13269;SDS011;6703;51.994;7.570;2023-03-31T06:30:46;4.78;;;0.93;;
13269;SDS011;6703;51.994;7.570;2023-03-31T06:33:14;0.93;;;0.23;;
13269;SDS011;6703;51.994;7.570;2023-03-31T06:35:42;3.20;;;0.83;;
13269;SDS011;6703;51.994;7.570;2023-03-31T06:38:10;4.57;;;1.02;;
13269;SDS011;6703;51.994;7.570;2023-03-31T06:40:37;14.15;;;2.22;;
13269;SDS011;6703;51.994;7.570;2023-03-31T06:43:05;0.95;;;0.15;;
13269;SDS011;6703;51.994;7.570;2023-03-31T06:45:33;5.95;;;1.00;;
13269;SDS011;6703;51.994;7.570;2023-03-31T06:48:02;6.18;;;0.63;;
13269;SDS011;6703;51.994;7.570;2023-03-31T06:50:30;1.55;;;0.65;;
13269;SDS011;6703;51.994;7.570;2023-03-31T06:55:33;4.23;;;0.90;;
13269;SDS011;6703;51.994;7.570;2023-03-31T06:58:01;7.27;;;1.30;;
13269;SDS011;6703;51.994;7.570;2023-03-31T07:00:29;8.93;;;1.20;;
13269;SDS011;6703;51.994;7.570;2023-03-31T07:02:57;5.38;;;1.30;;
13269;SDS011;6703;51.994;7.570;2023-03-31T07:05:28;8.05;;;1.20;;
13269;SDS011;6703;51.994;7.570;2023-03-31T07:07:56;5.20;;;1.10;;
13269;SDS011;6703;51.994;7.570;2023-03-31T07:10:26;7.60;;;1.20;;
13269;SDS011;6703;51.994;7.570;2023-03-31T07:12:55;7.63;;;1.45;;
13269;SDS011;6703;51.994;7.570;2023-03-31T07:15:23;7.73;;;1.03;;
13269;SDS011;6703;51.994;7.570;2023-03-31T07:17:54;7.60;;;1.20;;
13269;SDS011;6703;51.994;7.570;2023-03-31T07:20:29;7.43;;;1.40;;
13269;SDS011;6703;51.994;7.570;2023-03-31T07:22:57;7.93;;;1.52;;
13269;SDS011;6703;51.994;7.570;2023-03-31T07:25:25;6.20;;;1.13;;
13269;SDS011;6703;51.994;7.570;2023-03-31T07:27:53;8.25;;;1.10;;
13269;SDS011;6703;51.994;7.570;2023-03-31T07:30:21;8.23;;;1.45;;
13269;SDS011;6703;51.994;7.570;2023-03-31T07:32:50;6.70;;;1.08;;
13269;SDS011;6703;51.994;7.570;2023-03-31T07:35:20;5.90;;;1.30;;
13269;SDS011;6703;51.994;7.570;2023-03-31T07:37:50;6.57;;;1.00;;
13269;SDS011;6703;51.994;7.570;2023-03-31T07:40:19;7.00;;;1.17;;
13269;SDS011;6703;51.994;7.570;2023-03-31T07:42:50;7.95;;;1.23;;
13269;SDS011;6703;51.994;7.570;2023-03-31T07:45:19;7.03;;;1.13;;
13269;SDS011;6703;51.994;7.570;2023-03-31T07:47:47;7.50;;;1.10;;
13269;SDS011;6703;51.994;7.570;2023-03-31T07:50:16;4.55;;;1.13;;
13269;SDS011;6703;51.994;7.570;2023-03-31T07:52:44;9.23;;;1.43;;
13269;SDS011;6703;51.994;7.570;2023-03-31T07:55:14;8.07;;;1.52;;
13269;SDS011;6703;51.994;7.570;2023-03-31T07:57:42;4.88;;;1.30;;
13269;SDS011;6703;51.994;7.570;2023-03-31T08:00:12;6.75;;;1.13;;
13269;SDS011;6703;51.994;7.570;2023-03-31T08:02:41;10.23;;;1.40;;
13269;SDS011;6703;51.994;7.570;2023-03-31T08:05:09;8.10;;;1.40;;
13269;SDS011;6703;51.994;7.570;2023-03-31T08:07:39;4.35;;;1.33;;
13269;SDS011;6703;51.994;7.570;2023-03-31T08:10:09;7.03;;;1.40;;
13269;SDS011;6703;51.994;7.570;2023-03-31T08:12:39;5.90;;;1.20;;
13269;SDS011;6703;51.994;7.570;2023-03-31T08:15:07;6.55;;;1.35;;
13269;SDS011;6703;51.994;7.570;2023-03-31T08:17:35;7.77;;;1.53;;
13269;SDS011;6703;51.994;7.570;2023-03-31T08:20:03;8.80;;;2.13;;
13269;SDS011;6703;51.994;7.570;2023-03-31T08:22:33;6.50;;;1.30;;
13269;SDS011;6703;51.994;7.570;2023-03-31T08:25:02;5.53;;;1.40;;
13269;SDS011;6703;51.994;7.570;2023-03-31T08:27:31;6.10;;;1.02;;
13269;SDS011;6703;51.994;7.570;2023-03-31T08:30:01;8.13;;;1.38;;
13269;SDS011;6703;51.994;7.570;2023-03-31T08:32:30;2.20;;;0.60;;
13269;SDS011;6703;51.994;7.570;2023-03-31T08:34:58;8.20;;;0.70;;
13269;SDS011;6703;51.994;7.570;2023-03-31T08:37:26;7.40;;;1.20;;
13269;SDS011;6703;51.994;7.570;2023-03-31T08:39:54;4.00;;;0.77;;
13269;SDS011;6703;51.994;7.570;2023-03-31T08:42:24;3.30;;;0.30;;
13269;SDS011;6703;51.994;7.570;2023-03-31T08:44:58;2.65;;;0.40;;
13269;SDS011;6703;51.994;7.570;2023-03-31T08:47:29;7.65;;;0.40;;
13269;SDS011;6703;51.994;7.570;2023-03-31T08:49:59;1.70;;;0.90;;
13269;SDS011;6703;51.994;7.570;2023-03-31T08:52:30;1.23;;;0.35;;
13269;SDS011;6703;51.994;7.570;2023-03-31T08:55:02;0.10;;;0.10;;
13269;SDS011;6703;51.994;7.570;2023-03-31T08:57:34;0.15;;;0.15;;
13269;SDS011;6703;51.994;7.570;2023-03-31T09:00:12;0.00;;;0.00;;
13269;SDS011;6703;51.994;7.570;2023-03-31T09:02:45;0.00;;;0.00;;
13269;SDS011;6703;51.994;7.570;2023-03-31T09:05:22;0.00;;;0.00;;
13269;SDS011;6703;51.994;7.570;2023-03-31T09:07:58;0.30;;;0.30;;
13269;SDS011;6703;51.994;7.570;2023-03-31T09:10:34;0.10;;;0.10;;
13269;SDS011;6703;51.994;7.570;2023-03-31T09:13:09;0.00;;;0.00;;
13269;SDS011;6703;51.994;7.570;2023-03-31T09:15:45;0.90;;;0.10;;
13269;SDS011;6703;51.994;7.570;2023-03-31T09:18:17;0.15;;;0.08;;
13269;SDS011;6703;51.994;7.570;2023-03-31T09:20:49;0.00;;;0.00;;
13269;SDS011;6703;51.994;7.570;2023-03-31T09:23:26;0.00;;;0.00;;
13269;SDS011;6703;51.994;7.570;2023-03-31T09:34:36;0.05;;;0.05;;
13269;SDS011;6703;51.994;7.570;2023-03-31T09:37:04;0.05;;;0.05;;
13269;SDS011;6703;51.994;7.570;2023-03-31T09:39:32;0.80;;;0.70;;
13269;SDS011;6703;51.994;7.570;2023-03-31T09:41:59;0.00;;;0.00;;
13269;SDS011;6703;51.994;7.570;2023-03-31T09:44:29;0.00;;;0.00;;
13269;SDS011;6703;51.994;7.570;2023-03-31T09:47:03;0.00;;;0.00;;
13269;SDS011;6703;51.994;7.570;2023-03-31T09:49:38;0.00;;;0.00;;
13269;SDS011;6703;51.994;7.570;2023-03-31T09:52:21;0.00;;;0.00;;
13269;SDS011;6703;51.994;7.570;2023-03-31T09:55:05;0.10;;;0.10;;
13269;SDS011;6703;51.994;7.570;2023-03-31T09:58:02;0.27;;;0.27;;
13269;SDS011;6703;51.994;7.570;2023-03-31T10:00:33;0.90;;;0.30;;
13269;SDS011;6703;51.994;7.570;2023-03-31T10:03:01;0.00;;;0.00;;
13269;SDS011;6703;51.994;7.570;2023-03-31T10:05:35;0.00;;;0.00;;
13269;SDS011;6703;51.994;7.570;2023-03-31T10:08:20;1.40;;;0.70;;
13269;SDS011;6703;51.994;7.570;2023-03-31T10:10:52;0.00;;;0.00;;
13269;SDS011;6703;51.994;7.570;2023-03-31T10:13:21;0.10;;;0.10;;
13269;SDS011;6703;51.994;7.570;2023-03-31T10:15:51;0.00;;;0.00;;
13269;SDS011;6703;51.994;7.570;2023-03-31T10:18:30;0.00;;;0.00;;
13269;SDS011;6703;51.994;7.570;2023-03-31T10:21:01;0.00;;;0.00;;
13269;SDS011;6703;51.994;7.570;2023-03-31T10:23:31;0.80;;;0.50;;
13269;SDS011;6703;51.994;7.570;2023-03-31T10:26:00;0.00;;;0.00;;
13269;SDS011;6703;51.994;7.570;2023-03-31T10:28:30;0.00;;;0.00;;
13269;SDS011;6703;51.994;7.570;2023-03-31T10:30:59;0.00;;;0.00;;
13269;SDS011;6703;51.994;7.570;2023-03-31T10:33:29;0.00;;;0.00;;
13269;SDS011;6703;51.994;7.570;2023-03-31T10:36:02;0.00;;;0.00;;
13269;SDS011;6703;51.994;7.570;2023-03-31T10:38:35;0.00;;;0.00;;
13269;SDS011;6703;51.994;7.570;2023-03-31T10:41:05;0.22;;;0.13;;
13269;SDS011;6703;51.994;7.570;2023-03-31T10:43:34;0.00;;;0.00;;
13269;SDS011;6703;51.994;7.570;2023-03-31T10:46:04;0.10;;;0.10;;
13269;SDS011;6703;51.994;7.570;2023-03-31T10:48:33;0.10;;;0.10;;
13269;SDS011;6703;51.994;7.570;2023-03-31T10:51:10;0.00;;;0.00;;
13269;SDS011;6703;51.994;7.570;2023-03-31T10:53:46;0.00;;;0.00;;
13269;SDS011;6703;51.994;7.570;2023-03-31T10:56:19;0.20;;;0.20;;
13269;SDS011;6703;51.994;7.570;2023-03-31T10:58:58;0.00;;;0.00;;
13269;SDS011;6703;51.994;7.570;2023-03-31T11:01:38;0.00;;;0.00;;
13269;SDS011;6703;51.994;7.570;2023-03-31T11:04:24;1.05;;;0.85;;
13269;SDS011;6703;51.994;7.570;2023-03-31T11:07:03;0.20;;;0.20;;
13269;SDS011;6703;51.994;7.570;2023-03-31T11:09:34;0.00;;;0.00;;
13269;SDS011;6703;51.994;7.570;2023-03-31T11:12:12;0.00;;;0.00;;
13269;SDS011;6703;51.994;7.570;2023-03-31T11:14:49;0.00;;;0.00;;
13269;SDS011;6703;51.994;7.570;2023-03-31T11:17:26;0.00;;;0.00;;
13269;SDS011;6703;51.994;7.570;2023-03-31T11:20:01;0.00;;;0.00;;
13269;SDS011;6703;51.994;7.570;2023-03-31T11:22:42;0.63;;;0.55;;
13269;SDS011;6703;51.994;7.570;2023-03-31T11:25:19;0.00;;;0.00;;
13269;SDS011;6703;51.994;7.570;2023-03-31T11:27:57;0.00;;;0.00;;
13269;SDS011;6703;51.994;7.570;2023-03-31T11:30:30;1.70;;;0.50;;
13269;SDS011;6703;51.994;7.570;2023-03-31T11:33:09;0.10;;;0.10;;
13269;SDS011;6703;51.994;7.570;2023-03-31T11:35:56;0.00;;;0.00;;
13269;SDS011;6703;51.994;7.570;2023-03-31T11:38:43;1.60;;;0.50;;
13269;SDS011;6703;51.994;7.570;2023-03-31T11:41:14;0.00;;;0.00;;
13269;SDS011;6703;51.994;7.570;2023-03-31T11:43:44;0.00;;;0.00;;
13269;SDS011;6703;51.994;7.570;2023-03-31T11:46:15;0.00;;;0.00;;
13269;SDS011;6703;51.994;7.570;2023-03-31T11:48:46;0.00;;;0.00;;
13269;SDS011;6703;51.994;7.570;2023-03-31T11:51:19;0.00;;;0.00;;
13269;SDS011;6703;51.994;7.570;2023-03-31T11:53:53;0.00;;;0.00;;
13269;SDS011;6703;51.994;7.570;2023-03-31T11:56:23;0.00;;;0.00;;
13269;SDS011;6703;51.994;7.570;2023-03-31T11:58:53;11.20;;;0.45;;
13269;SDS011;6703;51.994;7.570;2023-03-31T12:01:23;0.00;;;0.00;;
13269;SDS011;6703;51.994;7.570;2023-03-31T12:03:53;0.00;;;0.00;;
13269;SDS011;6703;51.994;7.570;2023-03-31T12:06:46;0.00;;;0.00;;
13269;SDS011;6703;51.994;7.570;2023-03-31T12:09:16;0.00;;;0.00;;
13269;SDS011;6703;51.994;7.570;2023-03-31T12:11:51;0.00;;;0.00;;
13269;SDS011;6703;51.994;7.570;2023-03-31T12:14:22;0.00;;;0.00;;
13269;SDS011;6703;51.994;7.570;2023-03-31T12:16:54;0.00;;;0.00;;
13269;SDS011;6703;51.994;7.570;2023-03-31T12:19:26;1.60;;;0.70;;
13269;SDS011;6703;51.994;7.570;2023-03-31T12:21:55;1.00;;;0.70;;
13269;SDS011;6703;51.994;7.570;2023-03-31T12:24:28;0.00;;;0.00;;
13269;SDS011;6703;51.994;7.570;2023-03-31T12:27:00;0.00;;;0.00;;
13269;SDS011;6703;51.994;7.570;2023-03-31T12:29:30;0.00;;;0.00;;
13269;SDS011;6703;51.994;7.570;2023-03-31T12:32:02;5.20;;;0.50;;
13269;SDS011;6703;51.994;7.570;2023-03-31T12:34:32;0.00;;;0.00;;
13269;SDS011;6703;51.994;7.570;2023-03-31T12:37:07;0.00;;;0.00;;
13269;SDS011;6703;51.994;7.570;2023-03-31T12:39:51;0.00;;;0.00;;
13269;SDS011;6703;51.994;7.570;2023-03-31T12:42:38;0.15;;;0.15;;
13269;SDS011;6703;51.994;7.570;2023-03-31T12:45:16;1.20;;;0.80;;
13269;SDS011;6703;51.994;7.570;2023-03-31T12:47:52;0.00;;;0.00;;
13269;SDS011;6703;51.994;7.570;2023-03-31T12:50:36;0.00;;;0.00;;
13269;SDS011;6703;51.994;7.570;2023-03-31T12:53:12;0.00;;;0.00;;
13269;SDS011;6703;51.994;7.570;2023-03-31T12:55:44;0.00;;;0.00;;
13269;SDS011;6703;51.994;7.570;2023-03-31T12:58:35;0.90;;;0.90;;
13269;SDS011;6703;51.994;7.570;2023-03-31T13:01:06;0.00;;;0.00;;
13269;SDS011;6703;51.994;7.570;2023-03-31T13:03:40;0.00;;;0.00;;
13269;SDS011;6703;51.994;7.570;2023-03-31T13:06:44;0.00;;;0.00;;
13269;SDS011;6703;51.994;7.570;2023-03-31T13:12:31;0.00;;;0.00;;
13269;SDS011;6703;51.994;7.570;2023-03-31T13:15:01;0.00;;;0.00;;
13269;SDS011;6703;51.994;7.570;2023-03-31T13:17:31;7.10;;;1.40;;
13269;SDS011;6703;51.994;7.570;2023-03-31T13:20:14;0.00;;;0.00;;
13269;SDS011;6703;51.994;7.570;2023-03-31T13:22:45;0.57;;;0.57;;
13269;SDS011;6703;51.994;7.570;2023-03-31T13:25:36;4.10;;;0.47;;
13269;SDS011;6703;51.994;7.570;2023-03-31T13:28:13;9.53;;;1.73;;
13269;SDS011;6703;51.994;7.570;2023-03-31T13:30:46;12.87;;;2.07;;
13269;SDS011;6703;51.994;7.570;2023-03-31T13:33:18;6.85;;;1.27;;
13269;SDS011;6703;51.994;7.570;2023-03-31T13:35:49;8.45;;;2.28;;
13269;SDS011;6703;51.994;7.570;2023-03-31T13:38:21;8.35;;;1.45;;
13269;SDS011;6703;51.994;7.570;2023-03-31T13:40:55;10.15;;;1.50;;
13269;SDS011;6703;51.994;7.570;2023-03-31T13:43:36;9.90;;;1.98;;
13269;SDS011;6703;51.994;7.570;2023-03-31T13:46:25;12.48;;;2.15;;
13269;SDS011;6703;51.994;7.570;2023-03-31T13:49:02;10.60;;;1.77;;
13269;SDS011;6703;51.994;7.570;2023-03-31T13:51:40;9.57;;;3.17;;
13269;SDS011;6703;51.994;7.570;2023-03-31T13:54:23;8.40;;;1.70;;
13269;SDS011;6703;51.994;7.570;2023-03-31T13:57:08;16.90;;;3.80;;
13269;SDS011;6703;51.994;7.570;2023-03-31T14:00:15;13.38;;;2.80;;
13269;SDS011;6703;51.994;7.570;2023-03-31T14:02:54;7.60;;;1.80;;
13269;SDS011;6703;51.994;7.570;2023-03-31T14:05:29;12.30;;;1.87;;
13269;SDS011;6703;51.994;7.570;2023-03-31T14:07:58;7.18;;;1.50;;
13269;SDS011;6703;51.994;7.570;2023-03-31T14:10:29;8.13;;;1.95;;
13269;SDS011;6703;51.994;7.570;2023-03-31T14:13:05;7.73;;;2.10;;
13269;SDS011;6703;51.994;7.570;2023-03-31T14:15:37;8.83;;;1.30;;
13269;SDS011;6703;51.994;7.570;2023-03-31T14:18:05;8.80;;;1.60;;
13269;SDS011;6703;51.994;7.570;2023-03-31T14:20:36;11.18;;;1.70;;
13269;SDS011;6703;51.994;7.570;2023-03-31T14:23:19;10.98;;;1.98;;
13269;SDS011;6703;51.994;7.570;2023-03-31T14:25:56;8.20;;;2.13;;
13269;SDS011;6703;51.994;7.570;2023-03-31T14:28:32;12.80;;;3.40;;
13269;SDS011;6703;51.994;7.570;2023-03-31T14:31:11;9.73;;;2.00;;
13269;SDS011;6703;51.994;7.570;2023-03-31T14:33:49;9.63;;;1.63;;
13269;SDS011;6703;51.994;7.570;2023-03-31T14:36:27;7.68;;;2.00;;
13269;SDS011;6703;51.994;7.570;2023-03-31T14:39:00;10.38;;;1.48;;
13269;SDS011;6703;51.994;7.570;2023-03-31T14:41:29;7.53;;;1.40;;
13269;SDS011;6703;51.994;7.570;2023-03-31T14:43:59;11.88;;;2.03;;
13269;SDS011;6703;51.994;7.570;2023-03-31T14:46:31;6.07;;;1.63;;
13269;SDS011;6703;51.994;7.570;2023-03-31T14:49:05;7.85;;;1.77;;
13269;SDS011;6703;51.994;7.570;2023-03-31T14:51:33;9.52;;;1.63;;
13269;SDS011;6703;51.994;7.570;2023-03-31T14:54:01;10.00;;;1.75;;
13269;SDS011;6703;51.994;7.570;2023-03-31T14:56:30;7.90;;;2.13;;
13269;SDS011;6703;51.994;7.570;2023-03-31T14:59:01;9.98;;;1.67;;
13269;SDS011;6703;51.994;7.570;2023-03-31T15:01:32;10.10;;;2.10;;
13269;SDS011;6703;51.994;7.570;2023-03-31T15:04:01;11.77;;;1.92;;
13269;SDS011;6703;51.994;7.570;2023-03-31T15:06:32;14.40;;;3.97;;
13269;SDS011;6703;51.994;7.570;2023-03-31T15:09:02;12.73;;;2.95;;
13269;SDS011;6703;51.994;7.570;2023-03-31T15:11:30;11.35;;;2.90;;
13269;SDS011;6703;51.994;7.570;2023-03-31T15:13:58;11.43;;;2.00;;
13269;SDS011;6703;51.994;7.570;2023-03-31T15:16:34;8.93;;;1.87;;
13269;SDS011;6703;51.994;7.570;2023-03-31T15:19:11;9.43;;;1.90;;
13269;SDS011;6703;51.994;7.570;2023-03-31T15:21:41;13.85;;;2.05;;
13269;SDS011;6703;51.994;7.570;2023-03-31T15:24:10;11.52;;;1.98;;
13269;SDS011;6703;51.994;7.570;2023-03-31T15:26:39;15.53;;;2.13;;
13269;SDS011;6703;51.994;7.570;2023-03-31T15:29:10;11.75;;;2.03;;
13269;SDS011;6703;51.994;7.570;2023-03-31T15:31:42;14.82;;;2.20;;
13269;SDS011;6703;51.994;7.570;2023-03-31T15:34:11;12.60;;;1.80;;
13269;SDS011;6703;51.994;7.570;2023-03-31T15:36:41;14.23;;;2.22;;
13269;SDS011;6703;51.994;7.570;2023-03-31T15:42:19;12.50;;;2.23;;
13269;SDS011;6703;51.994;7.570;2023-03-31T15:44:52;18.13;;;2.67;;
13269;SDS011;6703;51.994;7.570;2023-03-31T15:50:20;14.07;;;1.55;;
13269;SDS011;6703;51.994;7.570;2023-03-31T15:52:49;19.15;;;2.00;;